< < Back
Terminal Aerodrome Forecast


Current Version              Previous Versions:   1  2  3  4  5  6  7  8  9  

Terminal Aerodrome Forecast

407
FTUS44 KHUN 141720
TAFHSV
TAF
KHSV 141720Z 1418/1518 14010KT P6SM OVC050
     FM142100 16012KT P6SM OVC040
     FM151000 15012KT 6SM -RA OVC025=

Latest METAR

258
SAUS80 KWBC 142300 RRA
MTRHSV
METAR KHSV 142253Z 16009KT 10SM OVC080 09/M11 A3007 RMK AO2 SLP184
T00891111


USA.gov is the U.S. government's official web portal to all federal, state and local government web resources and services.